sensor_id;sensor_type;location;lat;lon;timestamp;P1;durP1;ratioP1;P2;durP2;ratioP2
71395;SDS011;59888;55.814;37.132;2022-10-16T00:02:05;10.32;;;4.90;;
71395;SDS011;59888;55.814;37.132;2022-10-16T00:04:31;10.88;;;4.90;;
71395;SDS011;59888;55.814;37.132;2022-10-16T00:06:57;10.88;;;4.93;;
71395;SDS011;59888;55.814;37.132;2022-10-16T00:09:23;10.07;;;5.07;;
71395;SDS011;59888;55.814;37.132;2022-10-16T00:11:48;10.63;;;5.47;;
71395;SDS011;59888;55.814;37.132;2022-10-16T00:14:15;12.40;;;5.43;;
71395;SDS011;59888;55.814;37.132;2022-10-16T00:16:41;9.95;;;4.57;;
71395;SDS011;59888;55.814;37.132;2022-10-16T00:19:07;9.95;;;5.13;;
71395;SDS011;59888;55.814;37.132;2022-10-16T00:21:35;8.63;;;5.00;;
71395;SDS011;59888;55.814;37.132;2022-10-16T00:24:19;9.70;;;4.70;;
71395;SDS011;59888;55.814;37.132;2022-10-16T00:26:45;11.00;;;5.22;;
71395;SDS011;59888;55.814;37.132;2022-10-16T00:29:14;10.43;;;5.00;;
71395;SDS011;59888;55.814;37.132;2022-10-16T00:31:40;9.02;;;4.95;;
71395;SDS011;59888;55.814;37.132;2022-10-16T00:34:06;9.27;;;4.72;;
71395;SDS011;59888;55.814;37.132;2022-10-16T00:36:31;9.20;;;4.55;;
71395;SDS011;59888;55.814;37.132;2022-10-16T00:38:57;8.57;;;4.55;;
71395;SDS011;59888;55.814;37.132;2022-10-16T00:41:26;12.73;;;4.82;;
71395;SDS011;59888;55.814;37.132;2022-10-16T00:43:56;12.77;;;4.93;;
71395;SDS011;59888;55.814;37.132;2022-10-16T00:46:32;10.98;;;4.85;;
71395;SDS011;59888;55.814;37.132;2022-10-16T00:49:10;9.33;;;4.87;;
71395;SDS011;59888;55.814;37.132;2022-10-16T00:51:39;10.40;;;4.75;;
71395;SDS011;59888;55.814;37.132;2022-10-16T00:54:25;9.35;;;5.10;;
71395;SDS011;59888;55.814;37.132;2022-10-16T00:56:54;10.75;;;5.18;;
71395;SDS011;59888;55.814;37.132;2022-10-16T00:59:34;9.80;;;4.63;;
71395;SDS011;59888;55.814;37.132;2022-10-16T01:02:03;9.25;;;4.75;;
71395;SDS011;59888;55.814;37.132;2022-10-16T01:04:32;9.95;;;5.57;;
71395;SDS011;59888;55.814;37.132;2022-10-16T01:13:07;11.60;;;5.47;;
71395;SDS011;59888;55.814;37.132;2022-10-16T01:15:37;9.73;;;5.03;;
71395;SDS011;59888;55.814;37.132;2022-10-16T01:18:46;11.32;;;5.05;;
71395;SDS011;59888;55.814;37.132;2022-10-16T01:21:28;8.80;;;4.80;;
71395;SDS011;59888;55.814;37.132;2022-10-16T01:29:26;15.40;;;5.03;;
71395;SDS011;59888;55.814;37.132;2022-10-16T01:37:50;9.35;;;4.72;;
71395;SDS011;59888;55.814;37.132;2022-10-16T01:40:41;11.43;;;4.70;;
71395;SDS011;59888;55.814;37.132;2022-10-16T01:43:12;10.80;;;4.63;;
71395;SDS011;59888;55.814;37.132;2022-10-16T01:45:42;10.75;;;5.05;;
71395;SDS011;59888;55.814;37.132;2022-10-16T01:48:12;9.90;;;4.75;;
71395;SDS011;59888;55.814;37.132;2022-10-16T01:50:40;10.48;;;4.63;;
71395;SDS011;59888;55.814;37.132;2022-10-16T01:53:08;8.90;;;4.68;;
71395;SDS011;59888;55.814;37.132;2022-10-16T01:55:38;13.82;;;4.80;;
71395;SDS011;59888;55.814;37.132;2022-10-16T01:58:10;14.57;;;5.20;;
71395;SDS011;59888;55.814;37.132;2022-10-16T02:00:38;9.65;;;4.82;;
71395;SDS011;59888;55.814;37.132;2022-10-16T02:03:06;7.95;;;4.47;;
71395;SDS011;59888;55.814;37.132;2022-10-16T02:05:37;10.23;;;4.88;;
71395;SDS011;59888;55.814;37.132;2022-10-16T02:08:08;9.43;;;4.43;;
71395;SDS011;59888;55.814;37.132;2022-10-16T02:10:34;8.98;;;4.45;;
71395;SDS011;59888;55.814;37.132;2022-10-16T02:13:11;8.70;;;4.40;;
71395;SDS011;59888;55.814;37.132;2022-10-16T02:16:02;9.10;;;4.82;;
71395;SDS011;59888;55.814;37.132;2022-10-16T02:18:28;11.48;;;4.90;;
71395;SDS011;59888;55.814;37.132;2022-10-16T02:20:59;10.48;;;5.03;;
71395;SDS011;59888;55.814;37.132;2022-10-16T02:26:30;13.85;;;5.20;;
71395;SDS011;59888;55.814;37.132;2022-10-16T02:29:18;8.88;;;4.20;;
71395;SDS011;59888;55.814;37.132;2022-10-16T02:31:49;8.23;;;4.40;;
71395;SDS011;59888;55.814;37.132;2022-10-16T02:34:17;8.48;;;4.05;;
71395;SDS011;59888;55.814;37.132;2022-10-16T02:36:46;11.38;;;4.53;;
71395;SDS011;59888;55.814;37.132;2022-10-16T02:39:13;8.20;;;4.47;;
71395;SDS011;59888;55.814;37.132;2022-10-16T02:41:40;8.77;;;4.70;;
71395;SDS011;59888;55.814;37.132;2022-10-16T02:44:06;8.75;;;4.70;;
71395;SDS011;59888;55.814;37.132;2022-10-16T02:46:32;8.77;;;4.30;;
71395;SDS011;59888;55.814;37.132;2022-10-16T02:48:58;10.05;;;4.65;;
71395;SDS011;59888;55.814;37.132;2022-10-16T02:51:23;9.13;;;4.32;;
71395;SDS011;59888;55.814;37.132;2022-10-16T02:53:49;9.70;;;4.60;;
71395;SDS011;59888;55.814;37.132;2022-10-16T02:56:15;8.15;;;4.13;;
71395;SDS011;59888;55.814;37.132;2022-10-16T02:58:41;8.15;;;4.38;;
71395;SDS011;59888;55.814;37.132;2022-10-16T03:01:07;9.98;;;4.30;;
71395;SDS011;59888;55.814;37.132;2022-10-16T03:03:33;8.38;;;4.30;;
71395;SDS011;59888;55.814;37.132;2022-10-16T03:05:58;10.93;;;5.00;;
71395;SDS011;59888;55.814;37.132;2022-10-16T03:08:24;8.88;;;4.32;;
71395;SDS011;59888;55.814;37.132;2022-10-16T03:10:50;7.85;;;4.05;;
71395;SDS011;59888;55.814;37.132;2022-10-16T03:13:16;10.88;;;4.47;;
71395;SDS011;59888;55.814;37.132;2022-10-16T03:15:43;9.57;;;4.60;;
71395;SDS011;59888;55.814;37.132;2022-10-16T03:18:09;9.10;;;4.20;;
71395;SDS011;59888;55.814;37.132;2022-10-16T03:20:35;9.20;;;4.15;;
71395;SDS011;59888;55.814;37.132;2022-10-16T03:23:00;8.52;;;4.32;;
71395;SDS011;59888;55.814;37.132;2022-10-16T03:25:27;9.80;;;4.30;;
71395;SDS011;59888;55.814;37.132;2022-10-16T03:27:53;9.10;;;4.30;;
71395;SDS011;59888;55.814;37.132;2022-10-16T03:30:19;8.60;;;4.15;;
71395;SDS011;59888;55.814;37.132;2022-10-16T03:32:46;8.95;;;4.10;;
71395;SDS011;59888;55.814;37.132;2022-10-16T03:35:11;8.00;;;4.40;;
71395;SDS011;59888;55.814;37.132;2022-10-16T03:37:38;8.60;;;4.40;;
71395;SDS011;59888;55.814;37.132;2022-10-16T03:40:04;8.45;;;4.22;;
71395;SDS011;59888;55.814;37.132;2022-10-16T03:42:30;8.90;;;3.88;;
71395;SDS011;59888;55.814;37.132;2022-10-16T03:44:56;12.63;;;4.50;;
71395;SDS011;59888;55.814;37.132;2022-10-16T03:47:22;9.25;;;5.05;;
71395;SDS011;59888;55.814;37.132;2022-10-16T03:49:49;10.43;;;4.03;;
71395;SDS011;59888;55.814;37.132;2022-10-16T03:52:15;9.88;;;4.10;;
71395;SDS011;59888;55.814;37.132;2022-10-16T03:54:41;9.20;;;4.40;;
71395;SDS011;59888;55.814;37.132;2022-10-16T03:57:07;10.18;;;4.93;;
71395;SDS011;59888;55.814;37.132;2022-10-16T03:59:33;13.50;;;4.55;;
71395;SDS011;59888;55.814;37.132;2022-10-16T04:01:58;9.00;;;4.15;;
71395;SDS011;59888;55.814;37.132;2022-10-16T04:04:24;10.85;;;3.53;;
71395;SDS011;59888;55.814;37.132;2022-10-16T04:06:50;8.52;;;4.10;;
71395;SDS011;59888;55.814;37.132;2022-10-16T04:09:16;8.68;;;4.03;;
71395;SDS011;59888;55.814;37.132;2022-10-16T04:11:42;9.30;;;3.80;;
71395;SDS011;59888;55.814;37.132;2022-10-16T04:14:08;7.55;;;3.88;;
71395;SDS011;59888;55.814;37.132;2022-10-16T04:16:34;8.25;;;4.32;;
71395;SDS011;59888;55.814;37.132;2022-10-16T04:19:00;9.45;;;4.40;;
71395;SDS011;59888;55.814;37.132;2022-10-16T04:21:26;7.65;;;4.15;;
71395;SDS011;59888;55.814;37.132;2022-10-16T04:23:51;9.13;;;4.18;;
71395;SDS011;59888;55.814;37.132;2022-10-16T04:26:17;10.95;;;4.32;;
71395;SDS011;59888;55.814;37.132;2022-10-16T04:28:43;8.50;;;4.45;;
71395;SDS011;59888;55.814;37.132;2022-10-16T04:31:09;9.95;;;4.75;;
71395;SDS011;59888;55.814;37.132;2022-10-16T04:33:34;7.75;;;3.92;;
71395;SDS011;59888;55.814;37.132;2022-10-16T04:36:00;8.85;;;4.45;;
71395;SDS011;59888;55.814;37.132;2022-10-16T04:38:28;10.63;;;4.50;;
71395;SDS011;59888;55.814;37.132;2022-10-16T04:40:53;7.50;;;4.00;;
71395;SDS011;59888;55.814;37.132;2022-10-16T04:43:19;8.15;;;4.20;;
71395;SDS011;59888;55.814;37.132;2022-10-16T04:45:46;7.68;;;3.80;;
71395;SDS011;59888;55.814;37.132;2022-10-16T04:48:12;9.98;;;4.63;;
71395;SDS011;59888;55.814;37.132;2022-10-16T04:50:37;10.45;;;4.80;;
71395;SDS011;59888;55.814;37.132;2022-10-16T04:53:06;9.52;;;4.40;;
71395;SDS011;59888;55.814;37.132;2022-10-16T04:55:32;10.27;;;4.43;;
71395;SDS011;59888;55.814;37.132;2022-10-16T04:57:59;9.45;;;4.03;;
71395;SDS011;59888;55.814;37.132;2022-10-16T05:00:24;8.43;;;4.05;;
71395;SDS011;59888;55.814;37.132;2022-10-16T05:02:50;10.00;;;4.38;;
71395;SDS011;59888;55.814;37.132;2022-10-16T05:05:16;9.27;;;4.35;;
71395;SDS011;59888;55.814;37.132;2022-10-16T05:07:45;9.10;;;4.40;;
71395;SDS011;59888;55.814;37.132;2022-10-16T05:10:11;9.50;;;4.07;;
71395;SDS011;59888;55.814;37.132;2022-10-16T05:12:37;8.60;;;4.13;;
71395;SDS011;59888;55.814;37.132;2022-10-16T05:15:03;8.65;;;4.40;;
71395;SDS011;59888;55.814;37.132;2022-10-16T05:17:30;13.30;;;4.32;;
71395;SDS011;59888;55.814;37.132;2022-10-16T05:19:56;8.85;;;3.97;;
71395;SDS011;59888;55.814;37.132;2022-10-16T05:22:22;6.97;;;4.30;;
71395;SDS011;59888;55.814;37.132;2022-10-16T05:24:47;8.82;;;4.10;;
71395;SDS011;59888;55.814;37.132;2022-10-16T05:27:13;7.85;;;4.03;;
71395;SDS011;59888;55.814;37.132;2022-10-16T05:29:45;9.15;;;4.40;;
71395;SDS011;59888;55.814;37.132;2022-10-16T05:32:14;8.27;;;4.00;;
71395;SDS011;59888;55.814;37.132;2022-10-16T05:34:41;7.95;;;3.97;;
71395;SDS011;59888;55.814;37.132;2022-10-16T05:37:08;10.23;;;4.20;;
71395;SDS011;59888;55.814;37.132;2022-10-16T05:39:34;8.38;;;4.10;;
71395;SDS011;59888;55.814;37.132;2022-10-16T05:42:00;7.68;;;4.05;;
71395;SDS011;59888;55.814;37.132;2022-10-16T05:44:25;10.85;;;4.45;;
71395;SDS011;59888;55.814;37.132;2022-10-16T05:46:51;12.20;;;4.03;;
71395;SDS011;59888;55.814;37.132;2022-10-16T05:49:17;9.50;;;3.55;;
71395;SDS011;59888;55.814;37.132;2022-10-16T05:51:43;8.63;;;3.65;;
71395;SDS011;59888;55.814;37.132;2022-10-16T05:54:09;11.48;;;3.92;;
71395;SDS011;59888;55.814;37.132;2022-10-16T05:56:34;8.27;;;3.78;;
71395;SDS011;59888;55.814;37.132;2022-10-16T05:59:00;7.93;;;3.90;;
71395;SDS011;59888;55.814;37.132;2022-10-16T06:01:26;8.23;;;3.53;;
71395;SDS011;59888;55.814;37.132;2022-10-16T06:03:52;10.77;;;4.20;;
71395;SDS011;59888;55.814;37.132;2022-10-16T06:06:22;8.48;;;4.10;;
71395;SDS011;59888;55.814;37.132;2022-10-16T06:08:51;10.07;;;3.95;;
71395;SDS011;59888;55.814;37.132;2022-10-16T06:11:19;11.75;;;3.92;;
71395;SDS011;59888;55.814;37.132;2022-10-16T06:13:50;8.38;;;3.97;;
71395;SDS011;59888;55.814;37.132;2022-10-16T06:16:17;12.00;;;4.28;;
71395;SDS011;59888;55.814;37.132;2022-10-16T06:18:43;7.97;;;3.90;;
71395;SDS011;59888;55.814;37.132;2022-10-16T06:21:10;9.63;;;3.90;;
71395;SDS011;59888;55.814;37.132;2022-10-16T06:23:41;7.07;;;3.67;;
71395;SDS011;59888;55.814;37.132;2022-10-16T06:26:12;8.88;;;4.10;;
71395;SDS011;59888;55.814;37.132;2022-10-16T06:28:39;13.50;;;4.10;;
71395;SDS011;59888;55.814;37.132;2022-10-16T06:31:06;10.43;;;4.57;;
71395;SDS011;59888;55.814;37.132;2022-10-16T06:33:33;9.85;;;4.30;;
71395;SDS011;59888;55.814;37.132;2022-10-16T06:36:02;7.40;;;4.10;;
71395;SDS011;59888;55.814;37.132;2022-10-16T06:38:38;8.75;;;4.20;;
71395;SDS011;59888;55.814;37.132;2022-10-16T06:41:04;7.78;;;4.40;;
71395;SDS011;59888;55.814;37.132;2022-10-16T06:43:31;7.68;;;4.00;;
71395;SDS011;59888;55.814;37.132;2022-10-16T06:45:58;6.82;;;3.95;;
71395;SDS011;59888;55.814;37.132;2022-10-16T06:48:25;9.68;;;4.00;;
71395;SDS011;59888;55.814;37.132;2022-10-16T06:53:38;8.85;;;3.92;;
71395;SDS011;59888;55.814;37.132;2022-10-16T06:56:10;8.18;;;3.75;;
71395;SDS011;59888;55.814;37.132;2022-10-16T06:58:37;7.28;;;3.70;;
71395;SDS011;59888;55.814;37.132;2022-10-16T07:01:04;12.00;;;4.47;;
71395;SDS011;59888;55.814;37.132;2022-10-16T07:03:31;7.80;;;4.07;;
71395;SDS011;59888;55.814;37.132;2022-10-16T07:05:57;6.63;;;3.45;;
71395;SDS011;59888;55.814;37.132;2022-10-16T07:08:26;7.45;;;3.47;;
71395;SDS011;59888;55.814;37.132;2022-10-16T07:10:59;7.47;;;3.92;;
71395;SDS011;59888;55.814;37.132;2022-10-16T07:13:29;10.70;;;4.10;;
71395;SDS011;59888;55.814;37.132;2022-10-16T07:15:54;8.10;;;3.85;;
71395;SDS011;59888;55.814;37.132;2022-10-16T07:18:20;7.93;;;3.80;;
71395;SDS011;59888;55.814;37.132;2022-10-16T07:20:46;10.82;;;3.97;;
71395;SDS011;59888;55.814;37.132;2022-10-16T07:23:12;7.45;;;3.60;;
71395;SDS011;59888;55.814;37.132;2022-10-16T07:25:38;9.32;;;3.60;;
71395;SDS011;59888;55.814;37.132;2022-10-16T07:28:04;9.45;;;3.60;;
71395;SDS011;59888;55.814;37.132;2022-10-16T07:30:29;6.80;;;3.55;;
71395;SDS011;59888;55.814;37.132;2022-10-16T07:32:55;8.88;;;3.60;;
71395;SDS011;59888;55.814;37.132;2022-10-16T07:35:21;7.90;;;3.58;;
71395;SDS011;59888;55.814;37.132;2022-10-16T07:37:47;8.65;;;3.85;;
71395;SDS011;59888;55.814;37.132;2022-10-16T07:40:12;8.65;;;3.33;;
71395;SDS011;59888;55.814;37.132;2022-10-16T07:42:38;6.70;;;3.00;;
71395;SDS011;59888;55.814;37.132;2022-10-16T07:45:04;7.78;;;3.65;;
71395;SDS011;59888;55.814;37.132;2022-10-16T07:47:30;13.13;;;3.90;;
71395;SDS011;59888;55.814;37.132;2022-10-16T07:49:56;5.45;;;3.22;;
71395;SDS011;59888;55.814;37.132;2022-10-16T07:52:22;6.25;;;3.00;;
71395;SDS011;59888;55.814;37.132;2022-10-16T07:54:48;7.65;;;3.65;;
71395;SDS011;59888;55.814;37.132;2022-10-16T07:57:13;9.10;;;3.60;;
71395;SDS011;59888;55.814;37.132;2022-10-16T07:59:45;8.15;;;3.42;;
71395;SDS011;59888;55.814;37.132;2022-10-16T08:02:11;7.63;;;3.28;;
71395;SDS011;59888;55.814;37.132;2022-10-16T08:04:37;7.45;;;3.30;;
71395;SDS011;59888;55.814;37.132;2022-10-16T08:07:03;7.10;;;3.50;;
71395;SDS011;59888;55.814;37.132;2022-10-16T08:09:29;9.25;;;3.38;;
71395;SDS011;59888;55.814;37.132;2022-10-16T08:11:55;6.75;;;3.40;;
71395;SDS011;59888;55.814;37.132;2022-10-16T08:14:20;9.15;;;3.40;;
71395;SDS011;59888;55.814;37.132;2022-10-16T08:16:46;7.00;;;3.17;;
71395;SDS011;59888;55.814;37.132;2022-10-16T08:19:12;8.82;;;3.50;;
71395;SDS011;59888;55.814;37.132;2022-10-16T08:21:38;8.32;;;3.70;;
71395;SDS011;59888;55.814;37.132;2022-10-16T08:24:04;7.70;;;3.15;;
71395;SDS011;59888;55.814;37.132;2022-10-16T08:26:29;6.60;;;2.95;;
71395;SDS011;59888;55.814;37.132;2022-10-16T08:28:55;6.20;;;3.13;;
71395;SDS011;59888;55.814;37.132;2022-10-16T08:31:21;7.53;;;3.00;;
71395;SDS011;59888;55.814;37.132;2022-10-16T08:33:48;9.80;;;2.92;;
71395;SDS011;59888;55.814;37.132;2022-10-16T08:36:15;8.82;;;2.70;;
71395;SDS011;59888;55.814;37.132;2022-10-16T08:38:41;7.68;;;2.97;;
71395;SDS011;59888;55.814;37.132;2022-10-16T08:46:35;6.32;;;3.20;;
71395;SDS011;59888;55.814;37.132;2022-10-16T08:49:08;6.30;;;3.22;;
71395;SDS011;59888;55.814;37.132;2022-10-16T08:51:38;5.65;;;2.90;;
71395;SDS011;59888;55.814;37.132;2022-10-16T08:54:06;6.35;;;2.90;;
71395;SDS011;59888;55.814;37.132;2022-10-16T08:56:53;5.75;;;2.50;;
71395;SDS011;59888;55.814;37.132;2022-10-16T08:59:21;5.63;;;2.55;;
71395;SDS011;59888;55.814;37.132;2022-10-16T09:01:47;4.28;;;2.28;;
71395;SDS011;59888;55.814;37.132;2022-10-16T09:18:52;6.22;;;2.28;;
71395;SDS011;59888;55.814;37.132;2022-10-16T09:21:27;7.93;;;2.38;;
71395;SDS011;59888;55.814;37.132;2022-10-16T09:24:38;4.32;;;2.20;;
71395;SDS011;59888;55.814;37.132;2022-10-16T09:26:50;5.85;;;2.47;;
71395;SDS011;59888;55.814;37.132;2022-10-16T09:29:17;4.80;;;2.65;;
71395;SDS011;59888;55.814;37.132;2022-10-16T09:31:48;6.07;;;2.60;;
71395;SDS011;59888;55.814;37.132;2022-10-16T09:34:33;9.32;;;2.67;;
71395;SDS011;59888;55.814;37.132;2022-10-16T09:37:03;6.85;;;2.75;;
71395;SDS011;59888;55.814;37.132;2022-10-16T09:39:30;6.47;;;2.42;;
71395;SDS011;59888;55.814;37.132;2022-10-16T09:42:10;6.28;;;2.40;;
71395;SDS011;59888;55.814;37.132;2022-10-16T09:44:39;5.32;;;1.92;;
71395;SDS011;59888;55.814;37.132;2022-10-16T09:47:16;6.40;;;2.75;;
71395;SDS011;59888;55.814;37.132;2022-10-16T09:50:03;8.95;;;2.70;;
71395;SDS011;59888;55.814;37.132;2022-10-16T09:52:44;3.45;;;2.10;;
71395;SDS011;59888;55.814;37.132;2022-10-16T09:55:14;6.38;;;2.58;;
71395;SDS011;59888;55.814;37.132;2022-10-16T09:57:51;9.90;;;2.33;;
71395;SDS011;59888;55.814;37.132;2022-10-16T10:00:18;4.90;;;2.20;;
71395;SDS011;59888;55.814;37.132;2022-10-16T10:02:44;5.93;;;2.38;;
71395;SDS011;59888;55.814;37.132;2022-10-16T10:05:21;9.13;;;2.40;;
71395;SDS011;59888;55.814;37.132;2022-10-16T10:07:58;7.25;;;2.55;;
71395;SDS011;59888;55.814;37.132;2022-10-16T10:10:28;10.40;;;2.50;;
71395;SDS011;59888;55.814;37.132;2022-10-16T10:12:55;10.57;;;3.00;;
71395;SDS011;59888;55.814;37.132;2022-10-16T10:15:25;4.32;;;2.15;;
71395;SDS011;59888;55.814;37.132;2022-10-16T10:17:54;6.85;;;2.42;;
71395;SDS011;59888;55.814;37.132;2022-10-16T10:20:31;7.18;;;2.63;;
71395;SDS011;59888;55.814;37.132;2022-10-16T10:23:01;6.15;;;2.55;;
71395;SDS011;59888;55.814;37.132;2022-10-16T10:31:06;5.43;;;2.53;;
71395;SDS011;59888;55.814;37.132;2022-10-16T10:36:39;5.28;;;2.50;;
71395;SDS011;59888;55.814;37.132;2022-10-16T10:39:16;6.15;;;2.70;;
71395;SDS011;59888;55.814;37.132;2022-10-16T10:50:21;6.18;;;2.30;;
71395;SDS011;59888;55.814;37.132;2022-10-16T10:52:58;4.90;;;2.13;;
71395;SDS011;59888;55.814;37.132;2022-10-16T11:06:41;6.50;;;2.67;;
71395;SDS011;59888;55.814;37.132;2022-10-16T11:09:19;7.38;;;3.03;;
71395;SDS011;59888;55.814;37.132;2022-10-16T11:11:50;5.07;;;2.63;;
71395;SDS011;59888;55.814;37.132;2022-10-16T11:16:54;8.35;;;3.03;;
71395;SDS011;59888;55.814;37.132;2022-10-16T11:22:28;5.78;;;2.83;;
71395;SDS011;59888;55.814;37.132;2022-10-16T11:30:49;5.70;;;2.47;;
71395;SDS011;59888;55.814;37.132;2022-10-16T11:36:15;6.32;;;2.90;;
71395;SDS011;59888;55.814;37.132;2022-10-16T11:44:21;5.68;;;2.63;;
71395;SDS011;59888;55.814;37.132;2022-10-16T11:46:52;6.43;;;2.80;;
71395;SDS011;59888;55.814;37.132;2022-10-16T11:49:46;6.18;;;2.70;;
71395;SDS011;59888;55.814;37.132;2022-10-16T11:52:30;7.25;;;2.55;;
71395;SDS011;59888;55.814;37.132;2022-10-16T11:55:26;4.57;;;2.45;;
71395;SDS011;59888;55.814;37.132;2022-10-16T11:58:01;6.10;;;2.60;;
71395;SDS011;59888;55.814;37.132;2022-10-16T12:00:35;5.50;;;2.38;;
71395;SDS011;59888;55.814;37.132;2022-10-16T12:08:35;9.07;;;2.75;;
71395;SDS011;59888;55.814;37.132;2022-10-16T12:11:08;4.75;;;2.38;;
71395;SDS011;59888;55.814;37.132;2022-10-16T12:16:37;8.80;;;2.30;;
71395;SDS011;59888;55.814;37.132;2022-10-16T12:19:11;6.88;;;2.38;;
71395;SDS011;59888;55.814;37.132;2022-10-16T12:21:41;4.55;;;2.20;;
71395;SDS011;59888;55.814;37.132;2022-10-16T12:27:05;5.05;;;2.50;;
71395;SDS011;59888;55.814;37.132;2022-10-16T12:29:45;7.88;;;2.35;;
71395;SDS011;59888;55.814;37.132;2022-10-16T12:32:44;7.85;;;2.63;;
71395;SDS011;59888;55.814;37.132;2022-10-16T12:35:05;6.47;;;2.35;;
71395;SDS011;59888;55.814;37.132;2022-10-16T12:37:42;6.50;;;2.20;;
71395;SDS011;59888;55.814;37.132;2022-10-16T12:40:11;5.15;;;2.33;;
71395;SDS011;59888;55.814;37.132;2022-10-16T12:42:39;5.25;;;2.40;;
71395;SDS011;59888;55.814;37.132;2022-10-16T12:45:27;4.88;;;2.60;;
71395;SDS011;59888;55.814;37.132;2022-10-16T12:47:52;5.30;;;2.78;;
71395;SDS011;59888;55.814;37.132;2022-10-16T12:50:26;7.07;;;2.65;;
71395;SDS011;59888;55.814;37.132;2022-10-16T12:53:16;4.95;;;2.67;;
71395;SDS011;59888;55.814;37.132;2022-10-16T13:01:28;4.55;;;2.55;;
71395;SDS011;59888;55.814;37.132;2022-10-16T13:04:04;5.22;;;2.80;;
71395;SDS011;59888;55.814;37.132;2022-10-16T13:22:39;6.10;;;2.70;;
71395;SDS011;59888;55.814;37.132;2022-10-16T13:28:28;4.75;;;2.45;;
71395;SDS011;59888;55.814;37.132;2022-10-16T13:30:58;6.97;;;2.70;;
71395;SDS011;59888;55.814;37.132;2022-10-16T13:33:31;5.75;;;2.30;;
71395;SDS011;59888;55.814;37.132;2022-10-16T13:36:21;4.60;;;2.38;;
71395;SDS011;59888;55.814;37.132;2022-10-16T13:38:57;5.25;;;2.40;;
71395;SDS011;59888;55.814;37.132;2022-10-16T13:41:26;5.68;;;2.50;;
71395;SDS011;59888;55.814;37.132;2022-10-16T13:43:52;5.43;;;2.58;;
71395;SDS011;59888;55.814;37.132;2022-10-16T13:46:22;5.78;;;2.50;;
71395;SDS011;59888;55.814;37.132;2022-10-16T13:48:58;5.90;;;2.90;;
71395;SDS011;59888;55.814;37.132;2022-10-16T13:51:26;7.78;;;3.03;;
71395;SDS011;59888;55.814;37.132;2022-10-16T13:53:54;4.28;;;2.63;;
71395;SDS011;59888;55.814;37.132;2022-10-16T13:56:22;4.95;;;2.80;;
71395;SDS011;59888;55.814;37.132;2022-10-16T13:59:02;7.18;;;2.90;;
71395;SDS011;59888;55.814;37.132;2022-10-16T14:01:49;4.38;;;2.78;;
71395;SDS011;59888;55.814;37.132;2022-10-16T14:04:16;6.88;;;3.30;;
71395;SDS011;59888;55.814;37.132;2022-10-16T14:06:43;6.93;;;3.10;;
71395;SDS011;59888;55.814;37.132;2022-10-16T14:09:14;7.57;;;3.70;;
71395;SDS011;59888;55.814;37.132;2022-10-16T14:11:53;11.80;;;5.82;;
71395;SDS011;59888;55.814;37.132;2022-10-16T14:14:22;10.18;;;6.38;;
71395;SDS011;59888;55.814;37.132;2022-10-16T14:16:48;9.90;;;5.22;;
71395;SDS011;59888;55.814;37.132;2022-10-16T14:19:24;11.43;;;4.88;;
71395;SDS011;59888;55.814;37.132;2022-10-16T14:21:51;9.05;;;3.58;;
71395;SDS011;59888;55.814;37.132;2022-10-16T14:26:55;11.02;;;4.28;;
71395;SDS011;59888;55.814;37.132;2022-10-16T14:29:21;7.25;;;3.70;;
71395;SDS011;59888;55.814;37.132;2022-10-16T14:32:04;8.48;;;4.30;;
71395;SDS011;59888;55.814;37.132;2022-10-16T14:34:32;9.75;;;4.47;;
71395;SDS011;59888;55.814;37.132;2022-10-16T14:37:00;10.30;;;5.13;;
71395;SDS011;59888;55.814;37.132;2022-10-16T14:39:32;9.55;;;4.70;;
71395;SDS011;59888;55.814;37.132;2022-10-16T14:41:59;8.30;;;3.95;;
71395;SDS011;59888;55.814;37.132;2022-10-16T14:44:28;9.48;;;4.25;;
71395;SDS011;59888;55.814;37.132;2022-10-16T14:46:58;11.90;;;4.45;;
71395;SDS011;59888;55.814;37.132;2022-10-16T14:49:33;8.23;;;3.83;;
71395;SDS011;59888;55.814;37.132;2022-10-16T14:51:58;9.77;;;3.75;;
71395;SDS011;59888;55.814;37.132;2022-10-16T14:54:24;9.80;;;4.38;;
71395;SDS011;59888;55.814;37.132;2022-10-16T14:56:54;9.60;;;4.32;;
71395;SDS011;59888;55.814;37.132;2022-10-16T15:04:46;9.35;;;5.00;;
71395;SDS011;59888;55.814;37.132;2022-10-16T15:07:12;10.93;;;4.82;;
71395;SDS011;59888;55.814;37.132;2022-10-16T15:09:38;11.50;;;4.85;;
71395;SDS011;59888;55.814;37.132;2022-10-16T15:12:04;12.93;;;5.50;;
71395;SDS011;59888;55.814;37.132;2022-10-16T15:14:29;12.05;;;5.57;;
71395;SDS011;59888;55.814;37.132;2022-10-16T15:16:55;13.57;;;6.40;;
71395;SDS011;59888;55.814;37.132;2022-10-16T15:19:21;12.45;;;6.07;;
71395;SDS011;59888;55.814;37.132;2022-10-16T15:21:47;10.68;;;6.03;;
71395;SDS011;59888;55.814;37.132;2022-10-16T15:24:14;13.50;;;6.07;;
71395;SDS011;59888;55.814;37.132;2022-10-16T15:26:40;11.68;;;5.97;;
71395;SDS011;59888;55.814;37.132;2022-10-16T15:29:07;12.52;;;5.75;;
71395;SDS011;59888;55.814;37.132;2022-10-16T15:31:33;13.25;;;5.97;;
71395;SDS011;59888;55.814;37.132;2022-10-16T15:33:59;12.55;;;5.63;;
71395;SDS011;59888;55.814;37.132;2022-10-16T15:36:30;16.15;;;6.75;;
71395;SDS011;59888;55.814;37.132;2022-10-16T15:39:02;13.55;;;6.40;;
71395;SDS011;59888;55.814;37.132;2022-10-16T15:41:29;13.07;;;6.15;;
71395;SDS011;59888;55.814;37.132;2022-10-16T15:43:55;15.85;;;6.90;;
71395;SDS011;59888;55.814;37.132;2022-10-16T15:46:22;12.95;;;6.45;;
71395;SDS011;59888;55.814;37.132;2022-10-16T15:48:49;14.18;;;6.45;;
71395;SDS011;59888;55.814;37.132;2022-10-16T15:51:16;12.68;;;6.57;;
71395;SDS011;59888;55.814;37.132;2022-10-16T15:53:43;14.32;;;6.03;;
71395;SDS011;59888;55.814;37.132;2022-10-16T15:56:11;10.90;;;5.78;;
71395;SDS011;59888;55.814;37.132;2022-10-16T15:58:38;18.02;;;7.10;;
71395;SDS011;59888;55.814;37.132;2022-10-16T16:01:04;12.45;;;5.70;;
71395;SDS011;59888;55.814;37.132;2022-10-16T16:03:31;11.45;;;5.82;;
71395;SDS011;59888;55.814;37.132;2022-10-16T16:05:58;10.55;;;5.70;;
71395;SDS011;59888;55.814;37.132;2022-10-16T16:08:28;14.07;;;5.85;;
71395;SDS011;59888;55.814;37.132;2022-10-16T16:11:01;17.45;;;6.00;;
71395;SDS011;59888;55.814;37.132;2022-10-16T16:13:29;12.70;;;5.45;;
71395;SDS011;59888;55.814;37.132;2022-10-16T16:15:55;12.13;;;5.50;;
71395;SDS011;59888;55.814;37.132;2022-10-16T16:18:21;13.13;;;5.40;;
71395;SDS011;59888;55.814;37.132;2022-10-16T16:20:49;14.25;;;5.72;;
71395;SDS011;59888;55.814;37.132;2022-10-16T16:23:16;15.90;;;6.35;;
71395;SDS011;59888;55.814;37.132;2022-10-16T16:25:41;14.55;;;6.22;;
71395;SDS011;59888;55.814;37.132;2022-10-16T16:28:08;12.98;;;6.32;;
71395;SDS011;59888;55.814;37.132;2022-10-16T16:30:36;13.68;;;6.82;;
71395;SDS011;59888;55.814;37.132;2022-10-16T16:33:02;14.40;;;6.03;;
71395;SDS011;59888;55.814;37.132;2022-10-16T16:35:28;11.88;;;6.28;;
71395;SDS011;59888;55.814;37.132;2022-10-16T16:37:54;10.98;;;5.63;;
71395;SDS011;59888;55.814;37.132;2022-10-16T16:40:20;13.15;;;5.93;;
71395;SDS011;59888;55.814;37.132;2022-10-16T16:42:47;16.58;;;5.78;;
71395;SDS011;59888;55.814;37.132;2022-10-16T16:45:13;11.35;;;5.13;;
71395;SDS011;59888;55.814;37.132;2022-10-16T16:47:39;10.70;;;5.05;;
71395;SDS011;59888;55.814;37.132;2022-10-16T16:50:05;16.60;;;5.15;;
71395;SDS011;59888;55.814;37.132;2022-10-16T16:52:32;8.30;;;4.82;;
71395;SDS011;59888;55.814;37.132;2022-10-16T16:54:59;11.30;;;5.05;;
71395;SDS011;59888;55.814;37.132;2022-10-16T16:57:28;10.73;;;4.93;;
71395;SDS011;59888;55.814;37.132;2022-10-16T16:59:54;10.82;;;4.80;;